Time;durP1;ratioP1;P1;durP2;ratioP2;P2;SDS_P1;SDS_P2;PMS_P1;PMS_P2;Temp;Humidity;BMP_temperature;BMP_pressure;BME280_temperature;BME280_humidity;BME280_pressure;Samples;Min_cycle;Max_cycle;Signal;HPM_P1;HPM_P2
2022/05/19 00:03:58;;;;;;;3.70;3.33;;;19.70;87.30;;;;;;10420460;28;20205;-81
2022/05/19 00:09:02;;;;;;;3.83;3.60;;;19.60;87.30;;;;;;10440751;28;20265;-80
2022/05/19 00:14:04;;;;;;;3.50;3.30;;;19.60;87.20;;;;;;10430483;28;20209;-80
2022/05/19 00:19:06;;;;;;;3.90;3.60;;;19.50;87.50;;;;;;10456780;28;20252;-82
2022/05/19 00:24:11;;;;;;;3.90;3.60;;;19.40;87.70;;;;;;10433089;28;20237;-82
2022/05/19 00:29:13;;;;;;;3.80;3.50;;;19.40;87.20;;;;;;10444820;28;20217;-82
2022/05/19 00:34:16;;;;;;;3.70;3.50;;;19.40;87.90;;;;;;10458991;28;20720;-83
2022/05/19 00:39:22;;;;;;;3.67;3.47;;;19.40;88.00;;;;;;10441411;28;20261;-80
2022/05/19 00:44:24;;;;;;;3.93;3.53;;;19.30;89.30;;;;;;10465326;28;20201;-80
2022/05/19 00:49:31;;;;;;;4.20;3.90;;;19.30;88.50;;;;;;10467192;28;20218;-81
2022/05/19 00:54:40;;;;;;;3.73;3.40;;;19.30;87.80;;;;;;10428431;28;20212;-82
2022/05/19 01:05:10;;;;;;;3.97;3.67;;;19.20;88.50;;;;;;10417873;28;20189;-82
2022/05/19 01:10:16;;;;;;;3.67;3.47;;;19.10;88.30;;;;;;10428667;28;20228;-80
2022/05/19 01:15:19;;;;;;;3.73;3.43;;;19.00;87.80;;;;;;10459126;28;20212;-81
2022/05/19 01:20:24;;;;;;;3.63;3.40;;;19.00;89.20;;;;;;10443811;28;20288;-80
2022/05/19 01:25:37;;;;;;;3.70;3.50;;;18.80;89.00;;;;;;10419198;28;20205;-81
2022/05/19 01:30:41;;;;;;;4.37;4.17;;;18.80;88.70;;;;;;10461276;28;20275;-81
2022/05/19 01:35:44;;;;;;;3.87;3.57;;;18.70;88.30;;;;;;10442621;28;20253;-80
2022/05/19 01:40:58;;;;;;;4.10;3.80;;;18.50;89.10;;;;;;10439217;28;20225;-79
2022/05/19 01:46:14;;;;;;;4.07;3.73;;;18.60;88.80;;;;;;10431073;28;20265;-79
2022/05/19 01:51:25;;;;;;;4.13;3.93;;;18.40;89.20;;;;;;10430771;28;20268;-80
2022/05/19 01:56:31;;;;;;;4.50;3.77;;;18.20;89.00;;;;;;10451068;28;20244;-82
2022/05/19 02:01:34;;;;;;;3.43;3.23;;;18.00;89.70;;;;;;10459296;28;20228;-82
2022/05/19 02:06:41;;;;;;;4.20;3.60;;;17.90;90.10;;;;;;10453971;28;20225;-82
2022/05/19 02:11:48;;;;;;;3.50;3.30;;;17.80;89.70;;;;;;10441375;28;20209;-82
2022/05/19 02:16:52;;;;;;;3.73;3.37;;;17.90;90.30;;;;;;10422182;28;20279;-81
2022/05/19 02:21:56;;;;;;;3.73;3.47;;;18.10;90.00;;;;;;10461129;28;20236;-80
2022/05/19 02:26:58;;;;;;;3.40;3.10;;;18.20;89.80;;;;;;10427184;28;20205;-80
2022/05/19 02:32:02;;;;;;;3.90;3.60;;;18.20;90.30;;;;;;10440877;28;20684;-82
2022/05/19 02:37:07;;;;;;;3.70;3.37;;;18.10;89.80;;;;;;10464113;28;20236;-82
2022/05/19 02:42:10;;;;;;;4.00;3.43;;;17.90;90.20;;;;;;10430020;28;20213;-82
2022/05/19 02:47:13;;;;;;;3.73;3.53;;;17.90;90.40;;;;;;10425050;28;20244;-82
2022/05/19 02:52:15;;;;;;;3.50;3.30;;;17.90;90.60;;;;;;10450086;28;20239;-81
2022/05/19 02:57:18;;;;;;;3.90;3.63;;;18.10;89.30;;;;;;10457110;28;20218;-81
2022/05/19 03:02:21;;;;;;;4.33;3.93;;;18.00;89.40;;;;;;10472077;28;20224;-81
2022/05/19 03:07:24;;;;;;;4.10;3.50;;;17.80;90.40;;;;;;10445202;28;20271;-82
2022/05/19 03:12:26;;;;;;;3.87;3.67;;;17.80;90.00;;;;;;10460859;28;20201;-81
2022/05/19 03:17:30;;;;;;;3.90;3.60;;;17.80;90.00;;;;;;10445040;28;20256;-82
2022/05/19 03:22:32;;;;;;;3.57;3.33;;;17.70;89.60;;;;;;10440202;28;20201;-81
2022/05/19 03:27:34;;;;;;;4.20;3.90;;;17.70;89.60;;;;;;10461901;28;20218;-81
2022/05/19 03:32:38;;;;;;;4.00;3.80;;;17.70;90.20;;;;;;10456244;28;20197;-81
2022/05/19 03:37:40;;;;;;;4.17;3.40;;;17.60;90.30;;;;;;10434309;28;20256;-82
2022/05/19 03:42:42;;;;;;;3.73;3.37;;;17.50;90.20;;;;;;10462575;28;20303;-82
2022/05/19 03:47:46;;;;;;;3.90;3.60;;;17.60;90.10;;;;;;10436048;28;20217;-80
2022/05/19 03:52:48;;;;;;;3.37;3.17;;;17.50;89.80;;;;;;10446549;28;20198;-81
2022/05/19 03:57:51;;;;;;;5.20;3.83;;;17.30;90.50;;;;;;10471400;28;20213;-80
2022/05/19 04:02:54;;;;;;;4.57;4.00;;;17.20;89.90;;;;;;10436669;28;20246;-80
2022/05/19 04:07:57;;;;;;;4.23;3.93;;;17.30;90.40;;;;;;10460573;28;20235;-83
2022/05/19 04:13:00;;;;;;;4.43;4.03;;;17.50;90.20;;;;;;10436908;28;20677;-81
2022/05/19 04:18:04;;;;;;;4.90;4.40;;;17.60;90.00;;;;;;10414789;28;20225;-80
2022/05/19 04:23:07;;;;;;;5.47;4.97;;;17.70;89.00;;;;;;10442788;28;20201;-82
2022/05/19 04:28:09;;;;;;;7.60;5.20;;;17.80;90.00;;;;;;10439388;28;20217;-81
2022/05/19 04:33:13;;;;;;;5.70;5.30;;;17.90;89.30;;;;;;10443280;28;20204;-82
2022/05/19 04:38:18;;;;;;;6.37;5.77;;;17.90;89.50;;;;;;10429123;28;20223;-82
2022/05/19 04:43:23;;;;;;;6.07;4.70;;;18.00;89.50;;;;;;10441276;28;20206;-81
2022/05/19 04:48:27;;;;;;;4.93;4.53;;;18.00;88.60;;;;;;10456365;28;20220;-82
2022/05/19 04:53:31;;;;;;;4.23;3.93;;;18.00;89.60;;;;;;10439888;28;20264;-83
2022/05/19 04:58:34;;;;;;;7.17;4.00;;;18.10;90.20;;;;;;10430085;28;20256;-83
2022/05/19 05:03:38;;;;;;;4.47;4.07;;;18.20;90.30;;;;;;10425902;28;20609;-80
2022/05/19 05:08:40;;;;;;;3.53;3.33;;;18.30;90.60;;;;;;10431780;28;20221;-79
2022/05/19 05:13:44;;;;;;;3.90;3.50;;;18.40;90.70;;;;;;10404125;28;20200;-80
2022/05/19 05:18:48;;;;;;;3.73;3.13;;;18.50;89.50;;;;;;10424080;28;20223;-80
2022/05/19 05:23:50;;;;;;;3.90;3.60;;;18.70;88.30;;;;;;10414790;28;20201;-80
2022/05/19 05:28:52;;;;;;;4.40;3.80;;;18.90;86.80;;;;;;10456730;28;20209;-80
2022/05/19 05:33:56;;;;;;;4.17;3.87;;;18.90;86.80;;;;;;10456430;28;20723;-79
2022/05/19 05:38:58;;;;;;;3.67;3.47;;;19.10;87.70;;;;;;10438286;28;20229;-80
2022/05/19 05:44:00;;;;;;;4.00;3.70;;;19.20;87.70;;;;;;10422068;28;20324;-80
2022/05/19 05:49:04;;;;;;;4.60;4.20;;;19.30;89.20;;;;;;10444218;22;20221;-77
2022/05/19 05:54:10;;;;;;;6.60;3.70;;;19.40;87.40;;;;;;10455578;28;20213;-77
2022/05/19 05:59:12;;;;;;;4.40;4.00;;;19.50;85.90;;;;;;10422398;28;20229;-76
2022/05/19 06:04:16;;;;;;;6.13;4.10;;;19.60;85.60;;;;;;10413548;28;20289;-77
2022/05/19 06:09:19;;;;;;;3.87;3.67;;;19.60;86.10;;;;;;10413922;28;20217;-77
2022/05/19 06:14:21;;;;;;;6.70;3.93;;;19.50;86.80;;;;;;10394376;28;20204;-76
2022/05/19 06:19:24;;;;;;;4.43;4.07;;;19.50;87.70;;;;;;10390541;28;20822;-76
2022/05/19 06:24:27;;;;;;;4.73;4.33;;;19.60;88.10;;;;;;10384760;28;20287;-76
2022/05/19 06:29:29;;;;;;;4.43;4.03;;;19.70;89.50;;;;;;10387646;28;20268;-76
2022/05/19 06:34:33;;;;;;;9.47;4.70;;;19.80;89.70;;;;;;10407526;28;20649;-76
2022/05/19 06:39:35;;;;;;;7.10;3.97;;;20.00;90.40;;;;;;10413538;28;20291;-76
2022/05/19 06:44:40;;;;;;;4.00;3.60;;;20.20;89.70;;;;;;10411839;28;20205;-76
2022/05/19 06:49:46;;;;;;;6.93;4.60;;;20.30;89.00;;;;;;10381552;28;20222;-76
2022/05/19 06:54:49;;;;;;;5.70;4.50;;;20.50;88.90;;;;;;10384292;28;20244;-77
2022/05/19 06:59:52;;;;;;;4.87;3.73;;;20.80;87.90;;;;;;10389651;28;20305;-77
2022/05/19 07:04:56;;;;;;;4.53;4.10;;;21.00;89.20;;;;;;10395994;28;20624;-76
2022/05/19 07:09:58;;;;;;;5.73;4.27;;;21.20;88.60;;;;;;10393913;28;20214;-77
2022/05/19 07:15:00;;;;;;;4.70;3.60;;;21.50;88.50;;;;;;10397049;28;20205;-77
2022/05/19 07:25:24;;;;;;;4.03;3.73;;;22.20;85.90;;;;;;10386611;28;20216;-77
2022/05/19 07:30:27;;;;;;;4.37;3.97;;;22.60;84.90;;;;;;10411286;28;20222;-77
2022/05/19 07:35:30;;;;;;;3.57;3.27;;;23.00;83.20;;;;;;10382021;28;20209;-77
2022/05/19 07:40:32;;;;;;;4.20;3.83;;;23.40;83.10;;;;;;10396707;28;20236;-76
2022/05/19 07:45:35;;;;;;;3.47;3.27;;;23.70;82.30;;;;;;10407937;28;20202;-76
2022/05/19 07:50:38;;;;;;;4.13;3.67;;;24.20;81.10;;;;;;10407357;28;20260;-77
2022/05/19 07:55:41;;;;;;;4.67;3.83;;;24.60;80.90;;;;;;10383388;28;20276;-77
2022/05/19 08:00:43;;;;;;;4.30;3.53;;;25.30;81.60;;;;;;10393133;28;20276;-76
2022/05/19 08:05:47;;;;;;;4.67;4.17;;;25.90;78.80;;;;;;10391468;28;20248;-77
2022/05/19 08:10:49;;;;;;;3.87;3.67;;;26.50;78.70;;;;;;10404520;28;20225;-76
2022/05/19 08:15:51;;;;;;;3.93;3.63;;;27.10;77.00;;;;;;10399015;28;20210;-77
2022/05/19 08:20:58;;;;;;;4.10;3.90;;;27.70;75.10;;;;;;10367570;28;20261;-77
2022/05/19 08:26:01;;;;;;;4.07;3.70;;;28.10;73.90;;;;;;10387129;28;20202;-77
2022/05/19 08:31:06;;;;;;;4.00;3.70;;;28.50;73.30;;;;;;10377702;28;20233;-77
2022/05/19 08:36:10;;;;;;;4.13;3.80;;;28.90;72.70;;;;;;10360350;28;20239;-77
2022/05/19 08:41:18;;;;;;;4.00;3.70;;;29.30;72.40;;;;;;10379575;28;20233;-78
2022/05/19 08:46:26;;;;;;;4.37;3.90;;;29.60;69.70;;;;;;10407030;28;20202;-77
2022/05/19 08:51:35;;;;;;;4.10;3.90;;;29.50;69.10;;;;;;10388378;28;20240;-78
2022/05/19 08:56:41;;;;;;;4.37;4.07;;;29.70;69.20;;;;;;10388357;28;20233;-77
2022/05/19 09:01:51;;;;;;;4.73;4.40;;;30.00;69.70;;;;;;10384012;28;20214;-77
2022/05/19 09:12:25;;;;;;;4.97;4.50;;;30.60;68.50;;;;;;10399852;28;20336;-77
2022/05/19 09:17:32;;;;;;;4.33;4.03;;;30.80;69.10;;;;;;10401953;28;20210;-77
2022/05/19 09:22:35;;;;;;;6.10;3.40;;;31.00;67.60;;;;;;10377582;28;20202;-78
2022/05/19 09:27:40;;;;;;;4.13;3.40;;;31.20;66.80;;;;;;10394199;28;20218;-82
2022/05/19 09:32:52;;;;;;;3.47;3.27;;;31.30;65.10;;;;;;10409998;28;20206;-78
2022/05/19 09:38:07;;;;;;;4.00;3.80;;;31.60;65.20;;;;;;10410003;28;20225;-79
2022/05/19 09:43:16;;;;;;;4.20;4.00;;;31.70;63.80;;;;;;10407657;28;20748;-78
2022/05/19 09:48:27;;;;;;;4.17;3.97;;;32.00;64.50;;;;;;10414641;28;20225;-80
2022/05/19 09:53:38;;;;;;;3.97;3.77;;;32.40;63.90;;;;;;10396922;28;20209;-79
2022/05/19 09:58:45;;;;;;;4.70;4.10;;;33.10;61.90;;;;;;10412161;28;20636;-79
2022/05/19 10:03:52;;;;;;;3.87;3.67;;;33.70;61.00;;;;;;10399702;28;20233;-79
2022/05/19 10:09:06;;;;;;;3.97;3.53;;;34.40;60.90;;;;;;10407098;28;20757;-79
2022/05/19 10:14:15;;;;;;;5.73;3.67;;;35.30;59.70;;;;;;10408240;28;20200;-79
2022/05/19 10:19:33;;;;;;;4.53;4.23;;;35.70;59.20;;;;;;10414556;28;20229;-79
2022/05/19 10:25:05;;;;;;;7.00;4.50;;;34.70;58.50;;;;;;10407627;28;20685;-78
2022/05/19 10:35:47;;;;;;;4.63;4.23;;;32.40;62.70;;;;;;10416045;28;20198;-79
2022/05/19 10:41:03;;;;;;;4.93;4.63;;;31.50;63.90;;;;;;10408958;28;20236;-79
2022/05/19 10:46:11;;;;;;;4.57;4.27;;;30.80;65.70;;;;;;10414344;28;20236;-79
2022/05/19 10:51:15;;;;;;;4.57;4.17;;;30.40;68.10;;;;;;10404666;28;21035;-79
2022/05/19 10:56:34;;;;;;;4.77;4.47;;;29.90;69.80;;;;;;10395880;28;20362;-79
2022/05/19 11:01:46;;;;;;;4.53;4.30;;;29.60;70.30;;;;;;10398192;28;20245;-79
2022/05/19 11:07:06;;;;;;;6.43;4.87;;;29.40;70.70;;;;;;10405785;28;20220;-78
2022/05/19 11:12:19;;;;;;;5.20;4.77;;;29.20;68.80;;;;;;10395003;28;20217;-79
2022/05/19 11:17:30;;;;;;;5.87;5.37;;;28.90;71.30;;;;;;10413924;28;20233;-79
2022/05/19 11:22:37;;;;;;;5.23;4.73;;;28.70;71.10;;;;;;10414255;28;20201;-79
2022/05/19 11:27:48;;;;;;;5.20;4.80;;;28.60;72.50;;;;;;10412231;28;20650;-79
2022/05/19 11:32:53;;;;;;;5.70;5.30;;;28.50;72.30;;;;;;10412294;28;20358;-79
2022/05/19 11:38:00;;;;;;;5.50;5.10;;;28.30;72.90;;;;;;10408491;28;20763;-78
2022/05/19 11:43:09;;;;;;;4.83;4.63;;;28.20;72.30;;;;;;10409650;28;20213;-79
2022/05/19 11:59:11;;;;;;;5.43;4.93;;;27.90;74.20;;;;;;10402335;28;20651;-78
2022/05/19 12:04:24;;;;;;;5.00;4.60;;;27.80;74.00;;;;;;10409411;28;20584;-78
2022/05/19 12:09:33;;;;;;;4.70;4.33;;;27.80;74.70;;;;;;10410371;28;20217;-78
2022/05/19 12:14:42;;;;;;;5.37;4.97;;;27.80;74.70;;;;;;10371817;28;20600;-78
2022/05/19 12:19:47;;;;;;;6.03;4.67;;;27.70;75.20;;;;;;10408586;28;20637;-78
2022/05/19 12:24:53;;;;;;;5.47;5.07;;;27.60;76.50;;;;;;10399539;28;20690;-79
2022/05/19 12:31:56;;;;;;;5.03;4.63;;;27.60;77.50;;;;;;10404675;28;20240;-79
2022/05/19 12:35:28;;;;;;;5.93;5.63;;;27.60;76.90;;;;;;10411444;28;20304;-79
2022/05/19 12:40:38;;;;;;;5.70;5.20;;;27.90;75.50;;;;;;10413311;28;20697;-79
2022/05/19 12:45:45;;;;;;;4.97;4.60;;;28.00;76.40;;;;;;10405133;28;20761;-79
2022/05/19 12:50:51;;;;;;;5.53;5.17;;;27.90;76.30;;;;;;10405058;28;20287;-78
2022/05/19 12:55:55;;;;;;;5.53;5.03;;;28.00;74.20;;;;;;10403841;28;20630;-78
2022/05/19 13:01:08;;;;;;;5.27;4.97;;;27.90;75.70;;;;;;10403314;28;20784;-78
2022/05/19 13:06:13;;;;;;;6.17;5.57;;;27.90;74.80;;;;;;10404258;28;20201;-78
2022/05/19 13:11:20;;;;;;;5.67;5.13;;;27.90;75.20;;;;;;10403118;28;20194;-78
2022/05/19 13:16:27;;;;;;;5.43;5.10;;;27.90;75.60;;;;;;10403104;28;20615;-78
2022/05/19 13:21:34;;;;;;;5.50;5.20;;;27.80;76.40;;;;;;10402885;28;20243;-78
2022/05/19 13:26:38;;;;;;;5.80;5.40;;;27.70;76.90;;;;;;10398114;28;20237;-78
2022/05/19 13:31:50;;;;;;;5.23;4.93;;;27.70;77.30;;;;;;10368446;28;20248;-78
2022/05/19 13:36:55;;;;;;;5.90;5.50;;;27.60;76.10;;;;;;10403127;28;20225;-79
2022/05/19 13:42:02;;;;;;;6.13;5.60;;;27.70;75.80;;;;;;10401234;28;20228;-79
2022/05/19 13:47:13;;;;;;;6.50;5.80;;;27.80;75.30;;;;;;10397287;28;20233;-79
2022/05/19 13:52:16;;;;;;;4.80;4.50;;;27.80;75.90;;;;;;10388214;28;20202;-79
2022/05/19 13:57:24;;;;;;;6.20;5.67;;;27.90;77.10;;;;;;10400623;28;20297;-79
2022/05/19 14:02:32;;;;;;;5.73;4.97;;;27.90;76.10;;;;;;10409629;28;20385;-79
2022/05/19 14:07:35;;;;;;;4.93;4.63;;;28.00;76.70;;;;;;10409309;28;20309;-79
2022/05/19 14:12:40;;;;;;;5.40;4.90;;;28.10;76.10;;;;;;10406853;28;20528;-79
2022/05/19 14:17:46;;;;;;;5.90;5.47;;;28.20;76.50;;;;;;10393031;28;20231;-79
2022/05/19 14:22:50;;;;;;;4.93;4.63;;;28.30;76.20;;;;;;10404059;28;20844;-79
2022/05/19 14:28:01;;;;;;;4.53;4.23;;;28.40;75.70;;;;;;10419456;28;20224;-79
2022/05/19 14:33:07;;;;;;;5.03;4.63;;;28.40;77.70;;;;;;10422447;28;20206;-79
2022/05/19 14:38:17;;;;;;;5.50;5.00;;;28.30;76.40;;;;;;10399198;28;20425;-79
2022/05/19 14:43:24;;;;;;;5.10;4.70;;;28.30;74.30;;;;;;10420143;28;20574;-79
2022/05/19 14:48:35;;;;;;;5.13;4.63;;;28.20;77.20;;;;;;10423311;28;20225;-79
2022/05/19 14:53:38;;;;;;;5.00;4.70;;;28.20;77.70;;;;;;10420016;28;20201;-79
2022/05/19 14:58:46;;;;;;;5.53;5.13;;;28.00;78.00;;;;;;10421193;28;20232;-79
2022/05/19 15:03:50;;;;;;;6.50;5.90;;;27.90;77.90;;;;;;10400331;28;20205;-79
2022/05/19 15:08:54;;;;;;;6.10;5.53;;;27.90;77.80;;;;;;10399128;28;20218;-79
2022/05/19 15:13:58;;;;;;;6.73;6.00;;;28.00;77.30;;;;;;10365797;28;20693;-79
2022/05/19 15:19:02;;;;;;;6.10;5.60;;;28.10;75.80;;;;;;10411562;28;20673;-79
2022/05/19 15:24:04;;;;;;;5.90;4.87;;;28.10;76.70;;;;;;10377110;28;20213;-79
2022/05/19 15:29:07;;;;;;;4.83;4.43;;;28.10;76.50;;;;;;10410217;28;20678;-79
2022/05/19 15:34:11;;;;;;;4.50;4.10;;;28.10;77.20;;;;;;10422509;28;20202;-79
2022/05/19 15:39:18;;;;;;;4.87;4.47;;;28.00;77.10;;;;;;10421910;28;20349;-80
2022/05/19 15:44:20;;;;;;;4.97;4.60;;;27.90;77.40;;;;;;10421576;28;20209;-79
2022/05/19 15:49:25;;;;;;;5.60;5.10;;;27.90;77.00;;;;;;10421560;28;20217;-79
2022/05/19 15:54:28;;;;;;;4.80;4.40;;;27.90;76.80;;;;;;10421439;28;20244;-79
2022/05/19 15:59:30;;;;;;;3.90;3.67;;;27.90;77.20;;;;;;10417215;28;20252;-79
2022/05/19 16:04:33;;;;;;;5.13;4.40;;;27.80;80.20;;;;;;10419397;28;20571;-79
2022/05/19 16:09:35;;;;;;;4.67;4.27;;;27.60;78.30;;;;;;10419227;28;20221;-79
2022/05/19 16:14:37;;;;;;;4.97;4.57;;;27.40;80.50;;;;;;10414830;28;20201;-78
2022/05/19 16:19:41;;;;;;;4.80;4.50;;;27.20;84.60;;;;;;10388347;28;20494;-78
2022/05/19 16:24:43;;;;;;;5.27;4.97;;;27.00;82.80;;;;;;10411246;28;20240;-78
2022/05/19 16:29:45;;;;;;;5.73;5.33;;;26.90;85.50;;;;;;10411029;28;20225;-78
2022/05/19 16:34:49;;;;;;;4.80;4.50;;;27.10;87.40;;;;;;10410658;28;20732;-78
2022/05/19 16:39:51;;;;;;;5.60;5.10;;;27.40;88.50;;;;;;10410702;28;20234;-78
2022/05/19 16:44:53;;;;;;;6.07;4.87;;;27.50;84.90;;;;;;10370877;28;20197;-78
2022/05/19 16:49:57;;;;;;;5.23;4.83;;;27.50;82.70;;;;;;10409849;28;20229;-78
2022/05/19 17:00:23;;;;;;;4.93;4.37;;;27.50;79.90;;;;;;10410534;28;20251;-78
2022/05/19 17:05:29;;;;;;;4.40;4.00;;;27.50;75.60;;;;;;10377381;28;20662;-77
2022/05/19 17:10:34;;;;;;;4.50;4.10;;;27.50;75.20;;;;;;10392440;28;20701;-78
2022/05/19 17:15:37;;;;;;;5.27;4.77;;;27.40;75.70;;;;;;10407285;28;20288;-78
2022/05/19 17:20:43;;;;;;;4.60;4.20;;;27.30;75.20;;;;;;10392041;28;20222;-78
2022/05/19 17:25:47;;;;;;;7.37;4.03;;;27.20;75.50;;;;;;10412067;28;20198;-78
2022/05/19 17:30:50;;;;;;;5.70;4.20;;;27.20;75.10;;;;;;10411102;28;20714;-78
2022/05/19 17:35:56;;;;;;;5.37;4.60;;;27.10;74.90;;;;;;10379553;28;20205;-78
2022/05/19 17:40:58;;;;;;;5.67;4.70;;;27.10;75.50;;;;;;10393535;28;20217;-78
2022/05/19 17:46:00;;;;;;;5.27;4.77;;;27.00;77.10;;;;;;10410071;28;20212;-78
2022/05/19 17:51:04;;;;;;;27.43;9.40;;;26.90;76.20;;;;;;10413886;28;20646;-78
2022/05/19 17:56:06;;;;;;;18.07;13.30;;;26.90;87.20;;;;;;10413704;28;20254;-79
2022/05/19 18:01:08;;;;;;;13.90;12.70;;;25.90;95.10;;;;;;10416641;28;20294;-78
2022/05/19 18:06:12;;;;;;;16.47;14.87;;;24.80;98.00;;;;;;10415398;28;20670;-78
2022/05/19 18:11:14;;;;;;;15.57;14.13;;;23.80;99.70;;;;;;10394758;28;20251;-78
2022/05/19 18:21:43;;;;;;;16.23;14.50;;;22.90;99.90;;;;;;10397455;28;20279;-78
2022/05/19 18:26:48;;;;;;;14.80;13.47;;;22.50;99.90;;;;;;10409813;28;20280;-78
2022/05/19 18:31:52;;;;;;;15.73;14.33;;;22.30;99.90;;;;;;10394963;28;20198;-77
2022/05/19 18:36:56;;;;;;;16.67;15.03;;;22.10;99.90;;;;;;10412798;28;20729;-78
2022/05/19 18:47:27;;;;;;;28.63;14.30;;;22.00;99.90;;;;;;10411712;28;20233;-78
2022/05/19 18:52:30;;;;;;;17.47;14.70;;;21.90;99.90;;;;;;10412131;28;20194;-76
2022/05/19 18:57:32;;;;;;;15.60;14.23;;;22.00;99.90;;;;;;10410831;28;20580;-76
2022/05/19 19:02:35;;;;;;;15.27;13.73;;;21.90;99.90;;;;;;10412161;28;20686;-76
2022/05/19 19:07:38;;;;;;;14.77;13.47;;;21.80;99.90;;;;;;10411427;28;20230;-76
2022/05/19 19:12:40;;;;;;;14.40;13.10;;;21.80;99.90;;;;;;10406828;28;20197;-76
2022/05/19 19:17:43;;;;;;;14.33;13.23;;;21.70;99.90;;;;;;10408475;28;20717;-76
2022/05/19 19:22:47;;;;;;;14.00;12.60;;;21.70;99.90;;;;;;10391521;28;20595;-76
2022/05/19 19:27:49;;;;;;;13.87;12.67;;;21.60;99.90;;;;;;10410156;28;20300;-76
2022/05/19 19:32:51;;;;;;;13.20;12.00;;;21.50;99.90;;;;;;10410048;28;20202;-76
2022/05/19 19:37:55;;;;;;;13.30;12.20;;;21.50;99.90;;;;;;10406993;28;20701;-76
2022/05/19 19:42:57;;;;;;;12.40;11.33;;;21.40;99.90;;;;;;10408508;28;20232;-76
2022/05/19 19:47:59;;;;;;;14.27;12.87;;;21.40;99.90;;;;;;10411618;28;20230;-76
2022/05/19 19:53:03;;;;;;;14.50;12.40;;;21.20;99.90;;;;;;10394635;28;20253;-76
2022/05/19 19:58:06;;;;;;;14.30;13.17;;;21.20;99.90;;;;;;10409893;28;20228;-76
2022/05/19 20:03:10;;;;;;;14.33;13.17;;;21.30;99.90;;;;;;10393737;28;20665;-76
2022/05/19 20:08:22;;;;;;;13.30;12.13;;;21.30;99.90;;;;;;10409622;28;20241;-76
2022/05/19 20:13:24;;;;;;;13.60;12.30;;;21.40;99.90;;;;;;10407790;28;20197;-77
2022/05/19 20:18:28;;;;;;;12.93;11.63;;;21.50;99.90;;;;;;10410939;28;20224;-76
2022/05/19 20:23:31;;;;;;;13.90;12.70;;;21.50;99.90;;;;;;10402293;28;20222;-76
2022/05/19 20:28:33;;;;;;;15.10;13.60;;;21.50;99.90;;;;;;10410003;28;20274;-77
2022/05/19 20:33:35;;;;;;;13.60;12.50;;;21.50;99.90;;;;;;10411130;28;20190;-77
2022/05/19 20:38:39;;;;;;;13.10;12.07;;;21.60;99.90;;;;;;10410339;28;20598;-77
2022/05/19 20:43:41;;;;;;;11.80;10.80;;;21.60;99.90;;;;;;10386999;28;20261;-77
2022/05/19 20:48:44;;;;;;;13.60;11.10;;;21.60;99.90;;;;;;10410365;28;20229;-77
2022/05/19 20:53:47;;;;;;;11.57;10.47;;;21.60;99.90;;;;;;10392357;28;20225;-77
2022/05/19 20:58:50;;;;;;;13.23;11.93;;;21.60;99.90;;;;;;10409916;28;20292;-77
2022/05/19 21:03:52;;;;;;;11.50;10.50;;;21.60;99.90;;;;;;10372253;28;20223;-77
2022/05/19 21:08:56;;;;;;;12.00;11.00;;;21.60;99.90;;;;;;10374930;28;20226;-77
2022/05/19 21:13:58;;;;;;;12.73;11.60;;;21.60;99.90;;;;;;10391270;28;20210;-76
2022/05/19 21:19:00;;;;;;;12.10;11.07;;;21.50;99.90;;;;;;10364689;28;20643;-77
2022/05/19 21:29:24;;;;;;;10.23;9.33;;;21.50;99.90;;;;;;10406482;28;20291;-77
2022/05/19 21:34:27;;;;;;;11.20;10.10;;;21.50;99.90;;;;;;10390023;28;20675;-76
2022/05/19 21:39:31;;;;;;;11.73;10.73;;;21.50;99.90;;;;;;10403875;28;20317;-76
2022/05/19 21:44:33;;;;;;;8.20;7.43;;;21.50;99.90;;;;;;10403014;28;20237;-77
2022/05/19 21:49:35;;;;;;;9.30;8.60;;;21.40;99.90;;;;;;10403156;28;20236;-77
2022/05/19 21:59:58;;;;;;;12.40;8.27;;;21.30;99.90;;;;;;10408715;28;20226;-77
2022/05/19 22:05:00;;;;;;;12.07;9.10;;;21.10;99.90;;;;;;10409037;28;20212;-77
2022/05/19 22:10:05;;;;;;;8.40;7.70;;;21.00;99.90;;;;;;10408172;28;20729;-77
2022/05/19 22:15:11;;;;;;;8.70;7.80;;;20.90;99.90;;;;;;10361926;28;20202;-77
2022/05/19 22:20:17;;;;;;;9.33;8.50;;;20.90;99.90;;;;;;10378990;28;20229;-76
2022/05/19 22:25:21;;;;;;;8.57;7.30;;;20.90;99.90;;;;;;10373402;28;20271;-77
2022/05/19 22:30:23;;;;;;;8.37;7.57;;;20.90;99.90;;;;;;10375003;28;20221;-76
2022/05/19 22:35:25;;;;;;;9.77;7.27;;;20.90;99.90;;;;;;10362111;28;20202;-76
2022/05/19 22:40:29;;;;;;;7.00;6.50;;;20.90;99.90;;;;;;10347625;28;20257;-76
2022/05/19 22:45:32;;;;;;;9.97;6.60;;;20.90;99.90;;;;;;10409672;28;20197;-76
2022/05/19 22:50:39;;;;;;;8.27;7.13;;;20.80;99.90;;;;;;10414438;28;20217;-76
2022/05/19 22:55:42;;;;;;;7.67;7.00;;;20.70;99.90;;;;;;10414151;28;20194;-77
2022/05/19 23:00:44;;;;;;;8.67;7.87;;;20.80;99.90;;;;;;10414039;28;20360;-77
2022/05/19 23:05:46;;;;;;;8.43;7.67;;;20.80;99.90;;;;;;10407465;28;20202;-77
2022/05/19 23:10:50;;;;;;;8.80;6.93;;;20.60;99.90;;;;;;10413534;28;20248;-77
2022/05/19 23:15:52;;;;;;;7.63;7.10;;;20.50;99.90;;;;;;10408207;28;20605;-77
2022/05/19 23:20:55;;;;;;;7.60;6.83;;;20.50;99.90;;;;;;10413214;28;20711;-77
2022/05/19 23:25:58;;;;;;;7.77;7.03;;;20.50;99.90;;;;;;10405522;28;20201;-77
2022/05/19 23:31:00;;;;;;;7.17;6.50;;;20.60;99.90;;;;;;10412617;28;20287;-76
2022/05/19 23:36:05;;;;;;;7.33;6.73;;;20.60;99.90;;;;;;10412043;28;20670;-76
2022/05/19 23:41:09;;;;;;;7.43;6.70;;;20.50;99.90;;;;;;10412038;28;20313;-76
2022/05/19 23:46:12;;;;;;;8.73;6.50;;;20.60;99.90;;;;;;10393984;28;20212;-76
2022/05/19 23:51:17;;;;;;;7.10;6.40;;;20.60;99.90;;;;;;10412683;28;20260;-77
2022/05/19 23:56:20;;;;;;;7.40;6.70;;;20.60;99.90;;;;;;10406330;28;20252;-77
